サンパウロ/グアルーリョス の空港の天気 - METARとTAF

グアルーリョス国際空港 (サンパウロ) ( SBGR / GRU ) - ブラジル サンパウロ州サンパウロ市
飛行場実況気象(Metar)
観測時間07/17 06:00 BRT (07/17 09:00 UTC)
風向・風速静穏 0m/s
視程7000m
天気現象
なし
気温10℃
湿度94%
気圧1025hPa
METARSBGR 170900Z 00000KT 7000 NSC 10/09 Q1025
過去の天気等 Google飛行場航空写真 Wunderground天気予報

過去48時間のMETAR

飛行場予報(TAF)
発表時間: 7/16 23:00 BRT (7/17 02:00 UTC)
予報対象時間: 17日3時 BRT ~ 18日9時 BRT
風向・風速東北東 3m/s
視程8000m
なし
17日8時 BRT ~ 17日10時 BRT に徐々に
風向・風速東北東 2m/s
視程10km以上
なし
17日14時 BRT ~ 17日16時 BRT に徐々に
風向・風速南東 4m/s
17日17時 BRT ~ 17日19時 BRT に徐々に
風向・風速東 1m/s
視程8000m
なし
17日21時 BRT ~ 17日23時 BRT に徐々に
風向・風速静穏
18日0時 BRT から 確率 30% で
視程4000m
天気現象もや
18日5時 BRT から 確率 30% で
視程800m
天気現象
全天を覆う雲 雲底高度 30m
TAF SBGR 170200Z 1706/1812 06005KT 8000 NSC TX26/1718Z TN13/1803Z
BECMG 1711/1713 07004KT CAVOK
BECMG 1717/1719 13007KT
BECMG 1720/1722 08002KT 8000 NSC
BECMG 1800/1802 00000KT
PROB30 1803/1808 4000 BR
PROB30 1808/1811 0800 FG OVC001 RMK PGE